Airport ID:K0A0
Update Time (UTC):04/08/2020 08:36
Wind Speed (Knots):6
Wind Direction (Magnetic):220
Temperature (°C):24.8
Dew Point (°C):8.6
Humidity (%):36.2
Altimeter (inHg):30.15
Density Altitude (Feet):06600
Visibility (Miles):10
Clouds (Hundreds of feet):CLR
Present Weather:
METAR:METAR K0A0 040835Z AUTO 23006KT 10SM CLR 25/09 A3015 RMK AO2

The data displayed is for advisory purposes only and is not to be used for flight planning or operations.